Arviat Airport
CYEK : now visible

Airfield :











YOU CAN JOIN US ON...

 
LOGIN :

Register | Disclaimer

   EN    FR    IT 

 









Legend :    VFR   Marginal VFR   IFR   Intensive IFR   Very Intensive IFR
Visi :
Ceiling :
>= 8 km
>= 3000ft
5 to 8 km
1000 to 3000 ft
1500m to 5 km
500 to 1000 ft
800 to 1500m
200 to 500 ft
< 800m
< 200 ft
Symbols :   Thunderstorms  Fog  Heavy snow  Heavy precipitations  Wind > 20 kt







- Airport Elevation : 32 ft
- IATA code : YEK


CYEK - Arviat

CURRENT METAR :
  • 200900Z AUTO 00000KT 9SM OVC050 04/04 A2993 RMK SLP136

EXPIRED METARs :
  • 200800Z AUTO 22005KT 9SM BKN060 03/02 A2992 RMK SLP133
  • 200700Z AUTO 26005KT 9SM CLR 04/03 A2990 RMK SLP128

TAF TAF CYEK
Valid from the 20 at 06:00 until the 20 at 18:00 UTC


200548Z 2006/2018 27007KT P6SM FEW020
TEMPO 2006/2012 BKN020
FM201200 19008KT P6SM FEW040 SCT180
BECMG 2014/2016 17015G25KT RMK FCST BASED ON AUTO OBS. NXT FCST BY 201200Z
No reported NOTAMs for that airfield.



MET'MAP, your aeronautical weather chart ! - Copyright ORBIFLY December 2007 - Disclaimer

ORBIFLY MET'MAP TEAM :

Programming & Development : Alexandra Zaïnal
Concept & Development : Baudouin d'Aumeries
Co-Development & Prog : Marc-Olivier Méhu
Technical & hardware support : Manuel Goepfert

Contact : metmap@orbifly.com




SOURCES & CREDITS :

   NOAA       Earth
Advisory